createdAt,value
2024-02-13T00:04:11.808Z,7.20
2024-02-13T00:09:17.016Z,7.63
2024-02-13T00:14:19.012Z,7.70
2024-02-13T00:19:20.900Z,7.13
2024-02-13T00:24:22.762Z,7.80
2024-02-13T00:29:24.602Z,7.87
2024-02-13T00:34:27.256Z,7.77
2024-02-13T00:39:29.281Z,8.07
2024-02-13T00:44:31.269Z,7.60
2024-02-13T00:49:33.299Z,8.43
2024-02-13T00:54:35.122Z,8.23
2024-02-13T00:59:36.949Z,7.20
2024-02-13T01:04:38.761Z,8.00
2024-02-13T01:09:40.653Z,7.83
2024-02-13T01:14:42.530Z,7.37
2024-02-13T01:19:48.229Z,7.23
2024-02-13T01:24:50.108Z,8.23
2024-02-13T01:29:52.107Z,7.57
2024-02-13T01:34:54.581Z,7.37
2024-02-13T01:39:56.638Z,7.80
2024-02-13T01:44:58.531Z,7.20
2024-02-13T01:50:00.837Z,7.07
2024-02-13T01:55:04.366Z,7.17
2024-02-13T02:00:10.112Z,7.40
2024-02-13T02:05:15.293Z,7.67
2024-02-13T02:10:17.320Z,6.97
2024-02-13T02:15:19.175Z,5.67
2024-02-13T02:20:23.554Z,6.23
2024-02-13T02:25:25.732Z,5.27
2024-02-13T02:30:27.685Z,5.90
2024-02-13T02:35:29.743Z,6.30
2024-02-13T02:40:31.592Z,5.40
2024-02-13T02:45:33.707Z,6.47
2024-02-13T02:50:35.943Z,5.50
2024-02-13T02:55:37.797Z,4.90
2024-02-13T03:00:39.704Z,5.00
2024-02-13T03:05:42.002Z,5.30
2024-02-13T03:10:44.119Z,5.13
2024-02-13T03:15:46.095Z,4.50
2024-02-13T03:20:48.529Z,4.93
2024-02-13T03:25:51.092Z,4.60
2024-02-13T03:30:55.276Z,4.50
2024-02-13T03:35:57.240Z,4.10
2024-02-13T03:41:01.017Z,4.57
2024-02-13T03:46:02.895Z,4.23
2024-02-13T03:51:05.423Z,3.80
2024-02-13T03:56:07.860Z,4.20
2024-02-13T04:01:10.305Z,4.00
2024-02-13T04:06:13.154Z,4.00
2024-02-13T04:11:17.464Z,3.50
2024-02-13T04:16:19.523Z,3.23
2024-02-13T04:21:21.614Z,4.00
2024-02-13T04:26:31.376Z,3.70
2024-02-13T04:31:40.103Z,3.00
2024-02-13T04:36:43.726Z,3.50
2024-02-13T04:41:46.098Z,3.40
2024-02-13T04:46:48.137Z,3.67
2024-02-13T04:51:50.002Z,3.40
2024-02-13T04:56:51.939Z,2.67
2024-02-13T05:01:55.077Z,3.20
2024-02-13T05:07:15.597Z,2.60
2024-02-13T05:12:17.987Z,3.23
2024-02-13T05:17:25.249Z,3.30
2024-02-13T05:22:27.369Z,3.45
2024-02-13T05:27:29.365Z,3.00
2024-02-13T05:32:32.413Z,2.80
2024-02-13T05:37:34.447Z,2.63
2024-02-13T05:42:36.425Z,3.40
2024-02-13T05:47:39.085Z,2.93
2024-02-13T05:52:42.099Z,2.93
2024-02-13T05:57:43.969Z,3.20
2024-02-13T06:02:46.828Z,2.77
2024-02-13T06:07:48.974Z,2.93
2024-02-13T06:12:51.424Z,2.73
2024-02-13T06:17:53.512Z,3.60
2024-02-13T06:22:55.410Z,2.90
2024-02-13T06:27:57.249Z,2.90
2024-02-13T06:32:59.545Z,2.90
2024-02-13T06:38:01.478Z,3.53
2024-02-13T06:43:04.880Z,3.13
2024-02-13T06:48:08.529Z,3.10
2024-02-13T06:53:10.438Z,2.87
2024-02-13T06:58:14.995Z,3.20
2024-02-13T07:03:16.931Z,3.37
2024-02-13T07:08:18.918Z,3.13
2024-02-13T07:13:21.190Z,2.93
2024-02-13T07:18:23.204Z,3.60
2024-02-13T07:23:25.236Z,3.27
2024-02-13T07:28:27.042Z,3.10
2024-02-13T07:33:30.112Z,3.40
2024-02-13T07:38:32.218Z,3.23
2024-02-13T07:43:34.078Z,3.43
2024-02-13T07:48:35.984Z,3.23
2024-02-13T07:53:37.909Z,3.23
2024-02-13T07:58:40.591Z,3.37
2024-02-13T08:03:42.534Z,4.10
2024-02-13T08:08:44.500Z,3.30
2024-02-13T08:13:46.439Z,3.27
2024-02-13T08:18:51.806Z,3.93
2024-02-13T08:23:54.377Z,3.47
2024-02-13T08:28:56.332Z,3.27
2024-02-13T08:33:58.569Z,3.40
2024-02-13T08:39:01.801Z,3.60
2024-02-13T08:44:04.428Z,4.03
2024-02-13T08:49:06.984Z,3.60
2024-02-13T08:54:12.936Z,3.70
2024-02-13T08:59:14.897Z,3.33
2024-02-13T09:04:16.811Z,3.43
2024-02-13T09:09:18.780Z,3.40
2024-02-13T09:14:20.703Z,2.97
2024-02-13T09:19:22.821Z,3.13
2024-02-13T09:24:26.424Z,3.37
2024-02-13T09:29:29.530Z,3.40
2024-02-13T09:34:31.911Z,3.60
2024-02-13T09:39:33.768Z,3.23
2024-02-13T09:44:37.667Z,3.50
2024-02-13T09:49:44.534Z,3.47
2024-02-13T09:54:48.996Z,4.25
2024-02-13T09:59:51.861Z,3.60
2024-02-13T10:04:53.701Z,3.13
2024-02-13T10:09:56.410Z,3.53
2024-02-13T10:15:01.648Z,3.63
2024-02-13T10:20:04.162Z,3.13
2024-02-13T10:25:07.574Z,3.67
2024-02-13T10:30:10.222Z,3.23
2024-02-13T10:35:12.741Z,3.20
2024-02-13T10:40:24.247Z,3.33
2024-02-13T10:45:31.937Z,2.93
2024-02-13T10:50:35.524Z,3.13
2024-02-13T10:55:41.263Z,3.40
2024-02-13T11:00:45.481Z,3.20
2024-02-13T11:05:47.467Z,2.97
2024-02-13T11:10:51.020Z,3.47
2024-02-13T11:15:59.508Z,3.03
2024-02-13T11:21:02.543Z,3.47
2024-02-13T11:26:05.229Z,2.90
2024-02-13T11:31:20.143Z,3.20
2024-02-13T11:36:24.536Z,2.80
2024-02-13T11:41:26.505Z,3.00
2024-02-13T11:46:28.459Z,3.20
2024-02-13T11:51:31.634Z,2.80
2024-02-13T11:56:36.962Z,2.80
2024-02-13T12:01:39.530Z,3.43
2024-02-13T12:06:47.099Z,3.03
2024-02-13T12:11:50.951Z,2.70
2024-02-13T12:16:54.986Z,2.60
2024-02-13T12:21:56.965Z,3.03
2024-02-13T12:26:58.974Z,3.03
2024-02-13T12:32:02.025Z,2.53
2024-02-13T12:37:09.707Z,2.70
2024-02-13T12:47:22.988Z,2.77
2024-02-13T12:52:24.900Z,3.30
2024-02-13T12:57:31.040Z,3.10
2024-02-13T13:02:34.220Z,2.90
2024-02-13T13:07:37.480Z,2.70
2024-02-13T13:12:40.178Z,3.37
2024-02-13T13:17:43.252Z,2.77
2024-02-13T13:22:48.421Z,2.73
2024-02-13T13:27:52.067Z,2.80
2024-02-13T13:32:56.857Z,2.70
2024-02-13T13:38:02.437Z,2.70
2024-02-13T13:43:08.056Z,3.20
2024-02-13T13:48:17.340Z,2.67
2024-02-13T13:53:20.690Z,3.30
2024-02-13T13:58:24.022Z,2.77
2024-02-13T14:03:26.052Z,2.90
2024-02-13T14:08:28.655Z,2.80
2024-02-13T14:13:30.623Z,3.40
2024-02-13T14:18:32.754Z,2.17
2024-02-13T14:23:35.997Z,2.57
2024-02-13T14:28:38.263Z,2.37
2024-02-13T14:33:41.146Z,2.93
2024-02-13T14:38:43.269Z,2.20
2024-02-13T14:43:48.602Z,2.40
2024-02-13T14:48:50.874Z,3.10
2024-02-13T14:53:53.077Z,2.30
2024-02-13T14:58:55.119Z,2.70
2024-02-13T15:03:57.412Z,2.07
2024-02-13T15:09:01.288Z,2.23
2024-02-13T15:14:03.395Z,2.80
2024-02-13T15:19:07.770Z,2.07
2024-02-13T15:24:12.319Z,2.30
2024-02-13T15:29:17.941Z,2.20
2024-02-13T15:34:20.131Z,2.23
2024-02-13T15:39:40.692Z,1.70
2024-02-13T15:45:01.134Z,1.70
2024-02-13T15:50:06.991Z,2.00
2024-02-13T15:55:13.444Z,1.77
2024-02-13T16:00:21.625Z,1.90
2024-02-13T16:05:30.079Z,1.73
2024-02-13T16:10:33.480Z,1.63
2024-02-13T16:15:36.033Z,1.53
2024-02-13T16:20:38.950Z,1.73
2024-02-13T16:25:40.918Z,1.40
2024-02-13T16:30:45.716Z,1.60
2024-02-13T16:35:48.464Z,1.40
2024-02-13T16:40:51.050Z,1.70
2024-02-13T16:45:52.937Z,1.60
2024-02-13T16:50:54.831Z,1.70
2024-02-13T16:55:56.710Z,1.40
2024-02-13T17:01:02.809Z,1.70
2024-02-13T17:06:06.736Z,1.77
2024-02-13T17:11:09.596Z,1.90
2024-02-13T17:16:15.462Z,1.70
2024-02-13T17:21:17.388Z,2.00
2024-02-13T17:26:20.427Z,2.03
2024-02-13T17:31:22.469Z,2.10
2024-02-13T17:36:24.580Z,1.93
2024-02-13T17:41:28.934Z,1.77
2024-02-13T17:46:31.332Z,1.93
2024-02-13T17:51:33.249Z,1.73
2024-02-13T17:56:35.617Z,2.13
2024-02-13T18:01:37.758Z,2.23
2024-02-13T18:06:39.864Z,2.33
2024-02-13T18:11:43.369Z,2.70
2024-02-13T18:16:45.199Z,2.40
2024-02-13T18:21:50.179Z,2.83
2024-02-13T18:26:53.304Z,2.77
2024-02-13T18:31:57.149Z,2.60
2024-02-13T18:37:00.206Z,3.10
2024-02-13T18:42:02.055Z,3.07
2024-02-13T18:47:05.383Z,2.90
2024-02-13T18:52:08.907Z,5.13
2024-02-13T18:57:10.829Z,4.00
2024-02-13T19:02:14.367Z,4.53
2024-02-13T19:07:17.557Z,3.80
2024-02-13T19:12:19.769Z,4.40
2024-02-13T19:17:21.960Z,4.10
2024-02-13T19:22:24.047Z,3.93
2024-02-13T19:27:26.490Z,4.20
2024-02-13T19:32:29.854Z,4.60
2024-02-13T19:37:32.027Z,4.73
2024-02-13T19:42:34.070Z,4.77
2024-02-13T19:47:36.188Z,4.20
2024-02-13T19:52:38.784Z,4.10
2024-02-13T19:57:40.628Z,4.60
2024-02-13T20:02:43.656Z,4.30
2024-02-13T20:07:45.974Z,4.67
2024-02-13T20:12:47.817Z,4.53
2024-02-13T20:17:49.794Z,4.83
2024-02-13T20:22:52.029Z,5.13
2024-02-13T20:27:57.731Z,4.93
2024-02-13T20:33:01.149Z,4.70
2024-02-13T20:38:06.183Z,4.40
2024-02-13T20:43:11.196Z,3.90
2024-02-13T20:48:14.120Z,4.37
2024-02-13T20:53:16.031Z,4.57
2024-02-13T20:58:19.241Z,4.47
2024-02-13T21:03:21.958Z,4.80
2024-02-13T21:08:24.015Z,4.40
2024-02-13T21:13:25.951Z,4.20
2024-02-13T21:18:27.989Z,4.43
2024-02-13T21:23:48.882Z,4.03
2024-02-13T21:28:51.246Z,3.90
2024-02-13T21:33:53.341Z,3.80
2024-02-13T21:38:55.577Z,4.23
2024-02-13T21:43:57.822Z,3.60
2024-02-13T21:49:00.213Z,3.50
2024-02-13T21:54:02.705Z,4.07
2024-02-13T21:59:04.833Z,3.20
2024-02-13T22:04:06.933Z,3.23
2024-02-13T22:09:13.312Z,3.17
2024-02-13T22:14:15.533Z,3.20
2024-02-13T22:19:17.632Z,3.20
2024-02-13T22:24:20.374Z,3.00
2024-02-13T22:29:24.378Z,3.10
2024-02-13T22:34:27.905Z,3.20
2024-02-13T22:39:29.798Z,2.87
2024-02-13T22:44:31.747Z,3.00
2024-02-13T22:49:34.489Z,3.23
2024-02-13T22:54:36.363Z,3.13
2024-02-13T22:59:38.623Z,2.80
2024-02-13T23:04:42.671Z,2.60
2024-02-13T23:09:46.600Z,3.10
2024-02-13T23:14:48.458Z,3.10
2024-02-13T23:19:50.337Z,2.90
2024-02-13T23:24:52.150Z,2.50
2024-02-13T23:29:54.437Z,2.50
2024-02-13T23:34:56.746Z,2.83
2024-02-13T23:39:58.676Z,2.40
2024-02-13T23:45:00.566Z,2.80
2024-02-13T23:50:02.873Z,2.80
2024-02-13T23:55:09.745Z,2.73
